Time;durP1;ratioP1;P1;durP2;ratioP2;P2;SDS_P1;SDS_P2;PMS_P1;PMS_P2;Temp;Humidity;BMP_temperature;BMP_pressure;BME280_temperature;BME280_humidity;BME280_pressure;Samples;Min_cycle;Max_cycle;Signal;HPM_P1;HPM_P2
2022/11/21 00:02:00;;;;;;;18.10;12.93;;;;;;;-1.01;100.00;99989.84;4972284;28;20257;-55
2022/11/21 00:04:27;;;;;;;14.50;12.43;;;;;;;-1.02;100.00;99974.34;4974970;28;20324;-57
2022/11/21 00:06:54;;;;;;;16.67;12.70;;;;;;;-0.84;100.00;99980.13;4981520;28;20335;-55
2022/11/21 00:09:20;;;;;;;16.33;12.13;;;;;;;-0.85;100.00;99969.75;4978466;28;20243;-56
2022/11/21 00:11:47;;;;;;;16.80;12.57;;;;;;;-0.84;100.00;99968.91;4983248;28;20785;-57
2022/11/21 00:14:13;;;;;;;18.57;12.27;;;;;;;-0.69;100.00;99972.00;4975421;28;20321;-56
2022/11/21 00:16:40;;;;;;;20.70;14.33;;;;;;;-0.24;100.00;99961.34;4975570;28;20348;-56
2022/11/21 00:19:08;;;;;;;18.07;12.67;;;;;;;-0.33;100.00;99963.63;4978952;28;20313;-56
2022/11/21 00:21:35;;;;;;;18.53;12.33;;;;;;;-0.20;100.00;99958.03;4976732;28;20304;-56
2022/11/21 00:24:01;;;;;;;15.60;11.63;;;;;;;-0.33;100.00;99953.31;4981149;28;20755;-55
2022/11/21 00:26:29;;;;;;;18.37;12.80;;;;;;;-0.13;100.00;99951.34;4972140;28;20313;-55
2022/11/21 00:28:56;;;;;;;19.60;13.63;;;;;;;-0.30;100.00;99949.13;4980017;28;20945;-55
2022/11/21 00:31:24;;;;;;;16.67;12.83;;;;;;;-0.37;100.00;99946.31;4975102;28;20308;-56
2022/11/21 00:33:50;;;;;;;20.10;13.23;;;;;;;-0.50;100.00;99940.78;4981814;28;20241;-55
2022/11/21 00:36:18;;;;;;;14.67;11.97;;;;;;;-0.50;100.00;99940.78;4979309;28;20275;-57
2022/11/21 00:38:45;;;;;;;17.87;13.17;;;;;;;-0.65;100.00;99934.31;4984551;28;20240;-55
2022/11/21 00:41:12;;;;;;;16.13;12.03;;;;;;;-0.61;100.00;99937.00;4989936;28;20232;-55
2022/11/21 00:43:38;;;;;;;17.83;13.23;;;;;;;-0.57;100.00;99938.84;4988666;28;20731;-55
2022/11/21 00:46:05;;;;;;;19.10;12.20;;;;;;;-0.60;100.00;99933.59;4984187;28;20904;-56
2022/11/21 00:48:32;;;;;;;18.67;13.63;;;;;;;-0.62;100.00;99930.13;4991486;28;20233;-56
2022/11/21 00:51:00;;;;;;;16.80;12.67;;;;;;;-0.64;100.00;99936.03;4984567;28;20240;-55
2022/11/21 00:53:28;;;;;;;17.60;13.07;;;;;;;-0.68;100.00;99935.06;4992931;28;20256;-55
2022/11/21 00:55:55;;;;;;;17.27;13.40;;;;;;;-0.71;100.00;99924.66;4985351;28;20936;-54
2022/11/21 00:58:21;;;;;;;16.17;12.77;;;;;;;-0.67;100.00;99929.09;4991967;28;20746;-57
2022/11/21 01:00:48;;;;;;;16.47;12.60;;;;;;;-0.67;100.00;99921.34;4980243;28;20638;-55
2022/11/21 01:03:14;;;;;;;18.13;12.77;;;;;;;-0.77;100.00;99914.19;4972324;28;20238;-54
2022/11/21 01:05:41;;;;;;;15.93;11.60;;;;;;;-0.72;100.00;99916.06;4982103;28;20319;-58
2022/11/21 01:08:08;;;;;;;17.83;13.30;;;;;;;-0.80;100.00;99916.66;4983721;28;20262;-54
2022/11/21 01:10:36;;;;;;;17.73;12.87;;;;;;;-0.81;100.00;99917.47;4985549;28;20692;-55
2022/11/21 01:13:03;;;;;;;20.00;12.83;;;;;;;-0.77;100.00;99914.19;4973112;28;20242;-55
2022/11/21 01:15:30;;;;;;;16.93;11.77;;;;;;;-0.79;100.00;99913.25;4981093;28;20226;-56
2022/11/21 01:17:56;;;;;;;15.13;11.63;;;;;;;-0.77;100.00;99902.16;4976888;28;20654;-55
2022/11/21 01:20:24;;;;;;;17.10;12.13;;;;;;;-0.81;100.00;99907.16;4974116;28;20296;-55
2022/11/21 01:22:50;;;;;;;13.90;12.23;;;;;;;-0.82;100.00;99908.00;4978158;28;20331;-55
2022/11/21 01:25:17;;;;;;;17.77;13.40;;;;;;;-0.73;100.00;99910.88;4976052;28;20256;-56
2022/11/21 01:27:45;;;;;;;18.37;13.60;;;;;;;-0.69;100.00;99902.41;4981166;28;20259;-56
2022/11/21 01:30:13;;;;;;;14.93;11.20;;;;;;;-0.64;100.00;99905.09;4980019;28;20231;-56
2022/11/21 01:32:40;;;;;;;18.93;14.40;;;;;;;0.04;100.00;99895.06;4978565;28;20322;-55
2022/11/21 01:35:08;;;;;;;16.60;13.20;;;;;;;0.12;100.00;99899.59;4982247;28;20236;-55
2022/11/21 01:37:35;;;;;;;17.53;12.47;;;;;;;0.23;100.00;99894.72;4980944;28;20326;-57
2022/11/21 01:40:01;;;;;;;19.87;13.83;;;;;;;0.27;100.00;99885.34;4983169;28;21163;-55
2022/11/21 01:42:28;;;;;;;15.47;11.57;;;;;;;-0.01;100.00;99888.03;4979927;28;20232;-60
2022/11/21 01:44:57;;;;;;;19.77;13.20;;;;;;;-0.32;100.00;99893.16;4983538;28;20364;-55
2022/11/21 01:47:24;;;;;;;15.87;12.90;;;;;;;-0.36;100.00;99886.19;4984741;28;20240;-55
2022/11/21 01:49:52;;;;;;;16.33;11.80;;;;;;;-0.52;100.00;99896.06;4980040;28;20241;-56
2022/11/21 01:52:21;;;;;;;16.53;11.87;;;;;;;-0.43;100.00;99889.41;4980973;28;20241;-56
2022/11/21 01:54:49;;;;;;;15.77;12.63;;;;;;;-0.47;100.00;99887.56;4980439;28;20601;-55
2022/11/21 01:57:19;;;;;;;15.10;12.13;;;;;;;-0.46;100.00;99884.16;4982752;28;20877;-55
2022/11/21 01:59:51;;;;;;;15.87;12.37;;;;;;;-0.45;100.00;99886.81;4983845;28;20741;-55
2022/11/21 02:02:21;;;;;;;15.13;11.30;;;;;;;-0.43;100.00;99889.41;4981524;28;20726;-58
2022/11/21 02:04:49;;;;;;;17.73;13.43;;;;;;;-0.42;100.00;99879.16;4978975;28;20232;-56
2022/11/21 02:07:18;;;;;;;19.67;13.43;;;;;;;-0.38;100.00;99883.56;4984620;28;20717;-55
2022/11/21 02:09:48;;;;;;;21.17;14.03;;;;;;;-0.43;100.00;99886.81;4983968;28;20264;-55
2022/11/21 02:12:18;;;;;;;15.73;11.43;;;;;;;-0.45;100.00;99891.09;4980018;28;20924;-55
2022/11/21 02:14:45;;;;;;;15.57;11.93;;;;;;;-0.44;100.00;99888.53;4978026;28;20695;-57
2022/11/21 02:17:11;;;;;;;17.93;12.10;;;;;;;-0.44;100.00;99883.38;4970241;28;20704;-56
2022/11/21 02:19:46;;;;;;;19.33;14.10;;;;;;;-0.31;100.00;99882.03;4975565;28;20240;-56
2022/11/21 02:22:16;;;;;;;20.93;14.53;;;;;;;-0.03;100.00;99875.97;4976747;28;20711;-56
2022/11/21 02:24:46;;;;;;;18.97;13.10;;;;;;;0.10;100.00;99877.16;4982850;28;20235;-55
2022/11/21 02:27:15;;;;;;;16.90;12.23;;;;;;;0.01;100.00;99875.22;4976498;28;20760;-56
2022/11/21 02:29:41;;;;;;;18.67;13.60;;;;;;;0.12;100.00;99873.78;4984238;28;20241;-56
2022/11/21 02:32:08;;;;;;;18.03;12.50;;;;;;;0.84;100.00;99869.56;4982486;28;20339;-55
2022/11/21 02:34:35;;;;;;;17.13;12.37;;;;;;;0.23;100.00;99877.50;4982984;28;20240;-55
2022/11/21 02:37:02;;;;;;;17.83;13.37;;;;;;;0.33;100.00;99870.91;4980118;28;20328;-55
2022/11/21 02:39:32;;;;;;;19.37;12.30;;;;;;;0.26;100.00;99862.97;4978728;28;20241;-56
2022/11/21 02:42:05;;;;;;;15.87;12.27;;;;;;;0.77;100.00;99863.38;4981131;28;20608;-63
2022/11/21 02:44:37;;;;;;;19.80;13.30;;;;;;;1.00;100.00;99858.75;4980732;28;20229;-56
2022/11/21 02:47:04;;;;;;;18.67;14.10;;;;;;;0.51;100.00;99848.97;4979446;28;20266;-55
2022/11/21 02:49:38;;;;;;;17.27;13.43;;;;;;;0.54;100.00;99844.75;4980658;28;20254;-56
2022/11/21 02:52:05;;;;;;;18.23;12.73;;;;;;;0.17;100.00;99842.94;4979989;28;20886;-57
2022/11/21 02:54:32;;;;;;;15.17;11.83;;;;;;;-0.12;100.00;99840.44;4977483;28;20230;-56
2022/11/21 02:56:59;;;;;;;19.83;13.13;;;;;;;-0.10;100.00;99843.94;4979649;28;20671;-55
2022/11/21 02:59:26;;;;;;;18.30;12.57;;;;;;;0.37;100.00;99844.31;4977425;28;20269;-55
2022/11/21 03:01:58;;;;;;;14.90;12.53;;;;;;;1.46;100.00;99843.41;4982744;28;20240;-55
2022/11/21 03:04:25;;;;;;;20.20;14.43;;;;;;;1.09;100.00;99840.00;4975850;28;20229;-56
2022/11/21 03:06:52;;;;;;;17.73;12.93;;;;;;;1.51;100.00;99839.19;4981831;28;20241;-56
2022/11/21 03:09:19;;;;;;;16.03;12.20;;;;;;;1.65;100.00;99840.34;4977613;28;20694;-55
2022/11/21 03:11:45;;;;;;;17.33;12.73;;;;;;;1.54;100.00;99831.50;4981530;28;20241;-55
2022/11/21 03:14:12;;;;;;;18.10;13.97;;;;;;;0.88;100.00;99836.09;4980232;28;20237;-57
2022/11/21 03:16:39;;;;;;;17.57;13.13;;;;;;;0.61;100.00;99838.03;4981307;28;20838;-55
2022/11/21 03:19:07;;;;;;;20.47;13.73;;;;;;;0.18;100.00;99829.22;4985013;28;20233;-56
2022/11/21 03:21:34;;;;;;;17.83;12.33;;;;;;;0.33;100.00;99828.72;4984042;28;20255;-60
2022/11/21 03:24:01;;;;;;;17.97;13.37;;;;;;;-0.04;100.00;99828.63;4981496;28;20244;-56
2022/11/21 03:26:28;;;;;;;14.43;12.40;;;;;;;0.34;100.00;99825.28;4989195;28;20244;-55
2022/11/21 03:28:55;;;;;;;18.00;14.07;;;;;;;0.04;100.00;99830.56;4990382;28;20722;-56
2022/11/21 03:31:22;;;;;;;20.27;14.27;;;;;;;0.08;100.00;99832.38;4987307;28;20743;-54
2022/11/21 03:33:49;;;;;;;18.90;12.97;;;;;;;0.04;100.00;99835.72;4983770;28;20599;-55
2022/11/21 03:36:17;;;;;;;22.03;15.03;;;;;;;0.02;100.00;99830.50;4976967;28;20710;-55
2022/11/21 03:38:44;;;;;;;19.13;14.03;;;;;;;-0.05;100.00;99836.31;4980461;28;20240;-55
2022/11/21 03:43:51;;;;;;;15.77;12.67;;;;;;;-0.17;100.00;99838.59;4975794;28;20744;-54
2022/11/21 03:46:18;;;;;;;19.23;13.53;;;;;;;-0.23;100.00;99836.69;4974478;28;20714;-54
2022/11/21 03:48:45;;;;;;;19.17;14.53;;;;;;;-0.30;100.00;99839.94;4980605;28;20251;-55
2022/11/21 03:51:12;;;;;;;18.23;14.03;;;;;;;-0.34;100.00;99840.69;4972957;28;20260;-54
2022/11/21 03:53:40;;;;;;;24.13;16.10;;;;;;;-0.58;100.00;99838.28;4981257;28;20307;-56
2022/11/21 03:56:07;;;;;;;19.90;14.33;;;;;;;-0.59;100.00;99850.31;4975782;28;20241;-56
2022/11/21 03:58:33;;;;;;;23.20;13.50;;;;;;;-0.51;100.00;99851.38;4981022;28;20229;-55
2022/11/21 04:01:00;;;;;;;19.43;13.83;;;;;;;-0.49;100.00;99847.16;4975304;28;20647;-57
2022/11/21 04:03:27;;;;;;;17.13;13.43;;;;;;;-0.44;100.00;99849.00;4979172;28;20758;-55
2022/11/21 04:05:54;;;;;;;17.47;13.07;;;;;;;-0.44;100.00;99851.56;4981579;28;20264;-55
2022/11/21 04:08:21;;;;;;;18.67;14.37;;;;;;;-0.39;100.00;99852.56;4980060;28;20780;-55
2022/11/21 04:10:50;;;;;;;20.10;13.30;;;;;;;-0.34;100.00;99848.44;4976982;28;20244;-54
2022/11/21 04:13:17;;;;;;;17.93;13.67;;;;;;;-0.30;100.00;99856.28;4980113;28;20710;-54
2022/11/21 04:15:44;;;;;;;19.70;14.07;;;;;;;-0.25;100.00;99849.56;4978430;28;20237;-55
2022/11/21 04:18:11;;;;;;;19.17;14.07;;;;;;;-0.17;100.00;99849.78;4973977;28;20260;-56
2022/11/21 04:20:39;;;;;;;19.40;13.97;;;;;;;-0.13;100.00;99848.16;4978125;28;20233;-54
2022/11/21 04:23:06;;;;;;;20.30;14.37;;;;;;;-0.13;100.00;99850.72;4978482;28;20239;-54
2022/11/21 04:25:33;;;;;;;22.07;14.23;;;;;;;-0.30;100.00;99851.13;4982077;28;20753;-55
2022/11/21 04:28:02;;;;;;;19.07;13.53;;;;;;;-0.26;100.00;99850.38;4984600;28;20444;-55
2022/11/21 04:30:30;;;;;;;20.13;13.73;;;;;;;-0.18;100.00;99855.75;4982729;28;20675;-55
2022/11/21 04:32:57;;;;;;;21.27;15.00;;;;;;;-0.29;100.00;99852.88;4981758;28;20734;-54
2022/11/21 04:35:25;;;;;;;17.80;13.63;;;;;;;0.07;100.00;99862.47;4975713;28;20251;-55
2022/11/21 04:37:52;;;;;;;19.90;14.37;;;;;;;-0.21;100.00;99860.84;4982228;28;20314;-54
2022/11/21 04:40:19;;;;;;;18.03;13.33;;;;;;;0.16;100.00;99861.84;4975683;28;20611;-55
2022/11/21 04:42:47;;;;;;;17.50;13.43;;;;;;;0.27;100.00;99854.38;4976093;28;20620;-55
2022/11/21 04:45:17;;;;;;;15.53;12.77;;;;;;;0.06;100.00;99854.69;4982166;28;20230;-56
2022/11/21 04:47:45;;;;;;;18.10;13.37;;;;;;;-0.14;100.00;99860.19;4977729;28;20292;-55
2022/11/21 04:50:14;;;;;;;17.20;13.77;;;;;;;-0.13;100.00;99859.34;4974285;28;20988;-55
2022/11/21 04:52:41;;;;;;;20.53;15.07;;;;;;;-0.22;100.00;99859.06;4969974;28;20652;-55
2022/11/21 04:55:09;;;;;;;16.50;13.43;;;;;;;-0.16;100.00;99859.25;4980152;28;20291;-55
2022/11/21 04:57:36;;;;;;;18.03;13.50;;;;;;;-0.10;100.00;99862.00;4971795;28;20228;-56
2022/11/21 05:00:03;;;;;;;16.60;14.13;;;;;;;-0.06;100.00;99861.25;4974381;28;20660;-55
2022/11/21 05:02:32;;;;;;;21.83;13.70;;;;;;;-0.03;100.00;99856.19;4982690;28;20254;-56
2022/11/21 05:04:59;;;;;;;20.97;14.47;;;;;;;-0.06;100.00;99850.94;4973441;28;20811;-56
2022/11/21 05:07:26;;;;;;;20.60;15.37;;;;;;;-0.05;100.00;99865.56;4975879;28;20295;-54
2022/11/21 05:09:53;;;;;;;22.07;16.13;;;;;;;-0.08;100.00;99862.91;4982466;28;20667;-55
2022/11/21 05:15:04;;;;;;;17.80;14.90;;;;;;;-0.10;100.00;99859.44;4976368;28;20240;-57
2022/11/21 05:17:32;;;;;;;18.93;15.67;;;;;;;-0.13;100.00;99864.50;4977296;28;20262;-62
2022/11/21 05:19:59;;;;;;;19.20;13.30;;;;;;;-0.15;100.00;99865.28;4984720;28;20241;-55
2022/11/21 05:22:26;;;;;;;23.27;14.30;;;;;;;-0.15;100.00;99861.00;4987132;28;20249;-55
2022/11/21 05:24:52;;;;;;;22.40;16.27;;;;;;;-0.18;100.00;99873.81;4981780;28;20237;-56
2022/11/21 05:27:19;;;;;;;21.20;14.13;;;;;;;-0.13;100.00;99868.78;4985833;28;20233;-55
2022/11/21 05:29:46;;;;;;;20.63;15.23;;;;;;;-0.15;100.00;99868.72;4977921;28;20230;-56
2022/11/21 05:32:13;;;;;;;20.00;15.60;;;;;;;-0.16;100.00;99864.41;4981877;28;20241;-56
2022/11/21 05:34:41;;;;;;;20.63;15.20;;;;;;;-0.19;100.00;99879.78;4983120;28;20246;-55
2022/11/21 05:37:09;;;;;;;21.83;15.70;;;;;;;-0.18;100.00;99871.22;4981355;28;20264;-55
2022/11/21 05:39:35;;;;;;;30.57;16.00;;;;;;;-0.20;100.00;99872.91;4980416;28;20240;-55
2022/11/21 05:42:02;;;;;;;22.03;15.90;;;;;;;-0.24;100.00;99881.38;4986835;28;20671;-56
2022/11/21 05:44:28;;;;;;;20.97;16.93;;;;;;;-0.21;100.00;99866.00;4988499;28;20236;-55
2022/11/21 05:46:55;;;;;;;23.77;15.37;;;;;;;-0.21;100.00;99862.53;4986001;28;20248;-56
2022/11/21 05:49:22;;;;;;;23.30;14.60;;;;;;;-0.21;100.00;99862.53;4984282;28;20234;-57
2022/11/21 05:51:50;;;;;;;20.03;15.10;;;;;;;-0.23;100.00;99864.19;4979878;28;20230;-55
2022/11/21 05:54:17;;;;;;;21.93;15.40;;;;;;;-0.21;100.00;99859.94;4986796;28;20260;-54
2022/11/21 05:56:44;;;;;;;22.97;14.87;;;;;;;-0.23;100.00;99854.75;4974965;28;20249;-54
2022/11/21 05:59:11;;;;;;;21.27;15.00;;;;;;;-0.20;100.00;99856.56;4979482;28;20249;-55
2022/11/21 06:04:22;;;;;;;21.80;15.17;;;;;;;-0.21;100.00;99862.53;4976006;28;20306;-56
2022/11/21 06:06:51;;;;;;;21.40;15.57;;;;;;;-0.19;100.00;99864.31;4984580;28;20240;-56
2022/11/21 06:09:17;;;;;;;19.70;14.53;;;;;;;-0.12;100.00;99865.38;4982557;28;20310;-55
2022/11/21 06:11:44;;;;;;;19.73;14.20;;;;;;;-0.16;100.00;99871.28;4986512;28;20245;-56
2022/11/21 06:14:11;;;;;;;21.73;15.23;;;;;;;-0.18;100.00;99860.91;4973325;28;20318;-56
2022/11/21 06:16:37;;;;;;;22.80;15.10;;;;;;;-0.20;100.00;99870.31;4971881;28;20329;-54
2022/11/21 06:19:04;;;;;;;17.80;15.07;;;;;;;-0.24;100.00;99871.06;4983467;28;20292;-56
2022/11/21 06:21:33;;;;;;;19.00;14.50;;;;;;;-0.23;100.00;99866.78;4986444;28;20237;-57
2022/11/21 06:24:01;;;;;;;22.00;15.90;;;;;;;-0.21;100.00;99866.00;4987306;28;20260;-55
2022/11/21 06:26:28;;;;;;;22.00;14.03;;;;;;;-0.19;100.00;99869.47;4985889;28;20240;-54
2022/11/21 06:28:55;;;;;;;23.13;16.37;;;;;;;-0.22;100.00;99871.09;4985617;28;20237;-54
2022/11/21 06:31:23;;;;;;;21.93;15.60;;;;;;;-0.26;100.00;99871.00;4984151;28;20240;-55
2022/11/21 06:33:52;;;;;;;24.60;15.90;;;;;;;-0.26;100.00;99867.56;4986051;28;20369;-55
2022/11/21 06:36:19;;;;;;;21.40;15.70;;;;;;;-0.26;100.00;99867.56;4984041;28;20758;-55
2022/11/21 06:38:47;;;;;;;19.17;14.27;;;;;;;-0.25;100.00;99869.31;4966628;28;20226;-56
2022/11/21 06:41:16;;;;;;;20.70;14.27;;;;;;;-0.23;100.00;99870.22;4973245;28;20896;-56
2022/11/21 06:43:43;;;;;;;22.60;16.27;;;;;;;-0.25;100.00;99885.69;4973130;28;20242;-55
2022/11/21 06:46:10;;;;;;;24.73;15.50;;;;;;;-0.27;100.00;99881.28;4974915;28;20288;-56
2022/11/21 06:48:38;;;;;;;19.83;14.90;;;;;;;-0.25;100.00;99887.34;4973504;28;20262;-55
2022/11/21 06:51:06;;;;;;;21.87;15.50;;;;;;;-0.29;100.00;99877.78;4973513;28;20230;-57
2022/11/21 06:53:34;;;;;;;30.40;17.30;;;;;;;-0.31;100.00;99884.63;4980247;28;20271;-55
2022/11/21 06:56:01;;;;;;;20.80;16.23;;;;;;;-0.35;100.00;99883.66;4966936;28;20327;-61
2022/11/21 06:58:30;;;;;;;21.10;15.90;;;;;;;-0.38;100.00;99890.44;4975990;28;20333;-54
2022/11/21 07:00:57;;;;;;;20.97;15.33;;;;;;;-0.46;100.00;99895.34;4984368;28;20272;-55
2022/11/21 07:03:24;;;;;;;20.67;14.77;;;;;;;-0.48;100.00;99902.19;4980592;28;20241;-56
2022/11/21 07:05:52;;;;;;;20.67;14.83;;;;;;;-0.50;100.00;99891.78;4985951;28;21771;-55
2022/11/21 07:08:19;;;;;;;23.17;15.77;;;;;;;-0.51;100.00;99904.66;4979576;28;20241;-55
2022/11/21 07:10:46;;;;;;;21.70;15.90;;;;;;;-0.53;100.00;99903.72;4983493;28;20324;-54
2022/11/21 07:13:21;;;;;;;22.87;17.70;;;;;;;-0.52;100.00;99902.91;4985497;28;20261;-56
2022/11/21 07:15:50;;;;;;;26.53;17.20;;;;;;;-0.50;100.00;99908.97;4980677;28;20248;-55
2022/11/21 07:18:17;;;;;;;25.10;18.80;;;;;;;-0.46;100.00;99915.09;4978061;28;20591;-54
2022/11/21 07:20:44;;;;;;;22.00;17.00;;;;;;;-0.51;100.00;99918.41;4985344;28;20236;-55
2022/11/21 07:23:11;;;;;;;24.00;16.83;;;;;;;-0.54;100.00;99920.91;4985644;28;20241;-55
2022/11/21 07:25:39;;;;;;;21.53;16.87;;;;;;;-0.53;100.00;99927.84;4985550;28;20245;-56
2022/11/21 07:28:07;;;;;;;21.00;15.70;;;;;;;-0.56;100.00;99927.72;4984790;28;20241;-55
2022/11/21 07:30:34;;;;;;;23.20;16.33;;;;;;;-0.57;100.00;99931.13;4983366;28;20321;-55
2022/11/21 07:33:05;;;;;;;26.90;17.37;;;;;;;-0.58;100.00;99931.09;4986764;28;20245;-57
2022/11/21 07:35:32;;;;;;;20.57;15.63;;;;;;;-0.58;100.00;99929.38;4985836;28;20268;-59
2022/11/21 07:37:59;;;;;;;25.40;17.10;;;;;;;-0.58;100.00;99933.66;4971922;28;20245;-57
2022/11/21 07:40:26;;;;;;;24.43;17.63;;;;;;;-0.53;100.00;99939.81;4975284;28;20280;-55
2022/11/21 07:42:53;;;;;;;25.97;17.23;;;;;;;-0.53;100.00;99944.97;4977881;28;20283;-56
2022/11/21 07:45:20;;;;;;;21.13;16.23;;;;;;;-0.54;100.00;99946.69;4978233;28;20230;-56
2022/11/21 07:47:47;;;;;;;22.03;15.77;;;;;;;-0.65;100.00;99950.63;4984723;28;20260;-55
2022/11/21 07:50:16;;;;;;;25.23;16.60;;;;;;;-0.60;100.00;99949.06;4976582;28;20237;-55
2022/11/21 07:52:42;;;;;;;22.10;16.70;;;;;;;-0.62;100.00;99952.44;4985292;28;20929;-55
2022/11/21 07:55:09;;;;;;;25.40;16.77;;;;;;;-0.64;100.00;99949.78;4981731;28;20230;-56
2022/11/21 07:57:36;;;;;;;28.23;16.10;;;;;;;-0.62;100.00;99953.31;4985253;28;20237;-55
2022/11/21 08:00:04;;;;;;;26.33;17.80;;;;;;;-0.64;100.00;99952.38;4978777;28;21842;-56
2022/11/21 08:02:30;;;;;;;27.93;17.93;;;;;;;-0.60;100.00;99959.38;4985415;28;20679;-54
2022/11/21 08:04:57;;;;;;;25.37;16.53;;;;;;;-0.63;100.00;99959.31;4978767;28;20283;-55
2022/11/21 08:07:25;;;;;;;24.27;17.27;;;;;;;-0.56;100.00;99963.81;4973625;28;20237;-56
2022/11/21 08:09:52;;;;;;;24.97;17.47;;;;;;;-0.58;100.00;99962.88;4982476;28;20229;-55
2022/11/21 08:12:19;;;;;;;26.50;16.10;;;;;;;-0.63;100.00;99963.56;4976141;28;20232;-54
2022/11/21 08:14:46;;;;;;;25.93;17.30;;;;;;;-0.58;100.00;99959.44;4974815;28;20229;-56
2022/11/21 08:17:13;;;;;;;26.57;16.60;;;;;;;-0.62;100.00;99966.19;4982461;28;20274;-54
2022/11/21 08:19:39;;;;;;;24.13;16.03;;;;;;;-0.74;100.00;99960.66;4982221;28;20245;-55
2022/11/21 08:22:06;;;;;;;26.10;16.23;;;;;;;-0.70;100.00;99962.53;4984828;28;20764;-57
2022/11/21 08:24:35;;;;;;;27.23;16.87;;;;;;;-0.72;100.00;99961.59;4982033;28;20232;-55
2022/11/21 08:27:01;;;;;;;28.10;16.80;;;;;;;-0.76;100.00;99962.31;4984941;28;20256;-57
2022/11/21 08:29:28;;;;;;;25.30;15.57;;;;;;;-0.80;100.00;99966.50;4985186;28;20265;-56
2022/11/21 08:31:55;;;;;;;24.37;16.67;;;;;;;-0.84;100.00;99971.47;4983988;28;20616;-56
2022/11/21 08:34:22;;;;;;;30.47;16.87;;;;;;;-0.85;100.00;99967.16;4984876;28;20296;-56
2022/11/21 08:36:48;;;;;;;27.23;17.80;;;;;;;-0.81;100.00;99969.00;4978803;28;20316;-56
2022/11/21 08:39:15;;;;;;;27.00;16.53;;;;;;;-0.78;100.00;99969.97;4982625;28;20236;-55
2022/11/21 08:44:28;;;;;;;27.57;16.20;;;;;;;-0.88;100.00;99983.38;4967592;28;20283;-55
2022/11/21 08:46:55;;;;;;;26.83;16.27;;;;;;;-0.97;100.00;99986.56;4971517;28;20262;-55
2022/11/21 08:49:22;;;;;;;25.00;15.97;;;;;;;-0.89;100.00;99993.66;4981045;28;20780;-56
2022/11/21 08:51:49;;;;;;;24.33;15.00;;;;;;;-0.87;100.00;100004.91;4966939;28;20286;-54
2022/11/21 08:54:16;;;;;;;27.00;16.47;;;;;;;-0.82;100.00;99993.91;4968449;28;20237;-55
2022/11/21 08:56:44;;;;;;;26.13;17.47;;;;;;;-0.82;100.00;100004.22;4982239;28;20691;-55
2022/11/21 08:59:11;;;;;;;24.80;15.67;;;;;;;-0.85;100.00;99998.09;4981378;28;20240;-55
2022/11/21 09:01:38;;;;;;;28.20;16.30;;;;;;;-1.13;100.00;100002.31;4983138;28;20329;-54
2022/11/21 09:04:06;;;;;;;24.10;14.60;;;;;;;-1.11;100.00;99997.22;4992317;28;20228;-55
2022/11/21 09:06:33;;;;;;;21.93;13.77;;;;;;;-1.14;100.00;100003.16;4990669;28;20245;-55
2022/11/21 09:09:00;;;;;;;20.33;13.03;;;;;;;-1.12;100.00;100004.09;4982189;28;20324;-55
2022/11/21 09:11:27;;;;;;;19.40;11.83;;;;;;;-1.06;100.00;100003.41;4996492;28;20229;-55
2022/11/21 09:19:24;;;;;;;19.83;12.37;;;;;;;-1.24;100.00;100009.69;4975896;28;20245;-55
2022/11/21 09:21:51;;;;;;;16.57;11.93;;;;;;;-1.29;100.00;100006.06;4974403;28;20678;-55
2022/11/21 09:24:18;;;;;;;19.07;11.60;;;;;;;-1.31;100.00;100006.84;4974406;28;20245;-55
2022/11/21 09:26:45;;;;;;;18.97;12.03;;;;;;;-1.33;100.00;100009.38;4981264;28;20251;-57
2022/11/21 09:29:13;;;;;;;21.43;14.57;;;;;;;-1.56;100.00;100011.13;4989643;28;20228;-55
2022/11/21 09:31:40;;;;;;;21.67;13.73;;;;;;;-1.53;100.00;100010.38;4991683;28;20299;-55
2022/11/21 09:34:07;;;;;;;17.97;11.80;;;;;;;-1.55;100.00;100018.00;4988978;28;20236;-57
2022/11/21 09:36:34;;;;;;;20.73;13.07;;;;;;;-1.53;100.00;100007.78;4977587;28;20259;-55
2022/11/21 09:39:01;;;;;;;22.37;14.30;;;;;;;-1.48;100.00;100014.84;4987153;28;20782;-58
2022/11/21 09:41:52;;;;;;;21.30;14.03;;;;;;;-1.46;100.00;100013.22;4983455;28;20232;-55
2022/11/21 09:44:30;;;;;;;21.43;14.80;;;;;;;-1.47;100.00;100005.44;4980647;28;20239;-55
2022/11/21 09:47:05;;;;;;;24.87;16.10;;;;;;;-1.62;100.00;100004.88;4990737;28;20243;-55
2022/11/21 09:49:35;;;;;;;22.03;14.53;;;;;;;-1.59;100.00;100016.16;4987025;28;20299;-56
2022/11/21 09:52:02;;;;;;;22.50;15.37;;;;;;;-1.57;100.00;100013.66;4975034;28;20757;-56
2022/11/21 09:54:32;;;;;;;21.87;15.13;;;;;;;-1.61;100.00;100012.66;4972572;28;20264;-54
2022/11/21 09:56:59;;;;;;;23.53;15.63;;;;;;;-1.59;100.00;100016.16;4979255;28;20239;-55
2022/11/21 09:59:33;;;;;;;23.20;13.97;;;;;;;-1.48;100.00;100019.97;4973868;28;20317;-55
2022/11/21 10:01:59;;;;;;;17.73;11.80;;;;;;;-1.42;100.00;100026.19;4968122;28;20240;-55
2022/11/21 10:04:27;;;;;;;16.77;11.03;;;;;;;-1.41;100.00;100028.81;4977549;28;20295;-55
2022/11/21 10:07:01;;;;;;;16.80;12.10;;;;;;;-1.42;100.00;100028.75;4970421;28;20755;-57
2022/11/21 10:09:39;;;;;;;13.07;9.80;;;;;;;-1.33;100.00;100035.13;4970339;28;20316;-55
2022/11/21 10:15:05;;;;;;;18.00;12.67;;;;;;;-1.35;100.00;100051.34;4987726;28;20302;-54
2022/11/21 10:17:39;;;;;;;16.50;11.80;;;;;;;-1.35;100.00;100047.06;4983052;28;20249;-56
2022/11/21 10:20:21;;;;;;;16.87;10.93;;;;;;;-1.37;100.00;100047.81;4984655;28;20239;-55
2022/11/21 10:22:58;;;;;;;12.00;8.80;;;;;;;-1.33;100.00;100045.41;4985038;28;20232;-58
2022/11/21 10:25:27;;;;;;;16.00;10.40;;;;;;;-1.58;100.00;100050.50;4979576;28;20323;-56
2022/11/21 10:27:58;;;;;;;17.60;10.53;;;;;;;-1.48;100.00;100045.72;4981895;28;20695;-56
2022/11/21 10:30:28;;;;;;;15.00;10.50;;;;;;;-1.40;100.00;100047.69;4975365;28;20241;-55
2022/11/21 10:32:58;;;;;;;20.37;11.77;;;;;;;-1.40;100.00;100053.75;4980411;28;22492;-56
2022/11/21 10:35:26;;;;;;;18.57;11.27;;;;;;;-1.30;100.00;100065.22;4976819;28;20322;-55
2022/11/21 10:37:54;;;;;;;16.87;11.77;;;;;;;-1.21;100.00;100060.41;4976932;28;20840;-55
2022/11/21 10:40:29;;;;;;;14.93;11.10;;;;;;;-1.23;100.00;100064.63;4980901;28;20734;-55
2022/11/21 10:45:14;;;;;;;16.73;10.97;;;;;;;-1.20;100.00;100059.59;4986669;28;20243;-56
2022/11/21 10:45:49;;;;;;;14.60;8.97;;;;;;;-1.19;100.00;100069.09;4982828;28;20313;-56
2022/11/21 10:48:17;;;;;;;12.87;9.13;;;;;;;-1.17;100.00;100071.69;4976605;28;20251;-55
2022/11/21 10:50:53;;;;;;;14.43;10.20;;;;;;;-1.20;100.00;100064.75;4975184;28;20319;-55
2022/11/21 10:56:09;;;;;;;17.17;10.63;;;;;;;-1.18;100.00;100069.97;4981452;28;22084;-55
2022/11/21 10:58:41;;;;;;;15.80;9.53;;;;;;;-1.18;100.00;100070.84;4983783;28;20233;-56
2022/11/21 11:01:21;;;;;;;16.57;9.87;;;;;;;-1.13;100.00;100063.25;4974867;28;20229;-58
2022/11/21 11:03:48;;;;;;;13.47;9.50;;;;;;;-1.15;100.00;100060.63;4974235;28;20908;-55
2022/11/21 11:06:28;;;;;;;16.93;11.03;;;;;;;-1.07;100.00;100059.19;4983747;28;20814;-55
2022/11/21 11:08:54;;;;;;;17.47;11.33;;;;;;;-1.05;100.00;100062.72;4977087;28;20240;-54
2022/11/21 11:11:24;;;;;;;14.70;10.57;;;;;;;-1.04;100.00;100069.63;4984117;28;20322;-55
2022/11/21 11:13:57;;;;;;;17.80;10.83;;;;;;;-0.95;100.00;100058.72;4983690;28;20268;-55
2022/11/21 11:16:26;;;;;;;17.73;10.93;;;;;;;-0.97;100.00;100065.56;4981871;28;20883;-54
2022/11/21 11:18:59;;;;;;;18.80;12.23;;;;;;;-0.94;100.00;100064.78;4982732;28;20267;-55
2022/11/21 11:21:28;;;;;;;18.23;11.20;;;;;;;-0.97;100.00;100066.41;4980863;28;20239;-55
2022/11/21 11:24:07;;;;;;;16.87;12.17;;;;;;;-1.07;100.00;100066.94;4985228;28;20323;-55
2022/11/21 11:26:33;;;;;;;17.43;12.30;;;;;;;-1.50;100.00;100067.97;4980466;28;20327;-55
2022/11/21 11:29:09;;;;;;;17.43;10.47;;;;;;;-1.72;100.00;100063.75;4972292;28;20748;-55
2022/11/21 11:31:46;;;;;;;15.93;10.33;;;;;;;-1.55;100.00;100066.03;4973863;28;20228;-56
2022/11/21 11:34:14;;;;;;;16.07;11.27;;;;;;;-1.66;100.00;100069.94;4980827;28;20946;-55
2022/11/21 11:37:06;;;;;;;18.73;12.87;;;;;;;-1.53;100.00;100078.16;4983869;28;20997;-55